Bridge of Weir, United Kingdom
Current Conditions -  °F | °C
As of 10:50 PM on Thursday 20 Nov 2014 (Local Time) from EGPF Reporting Station
Haze Haze  
Wind Chill: 40°   Ceiling: 4500
Heat Index: 43°   Visibility: 2.1mi
Dew Point: 41°   Wind: 5mph
Humidity: 93%   Direction: 60°ENE
Pressure: 30.27"   Gusts: NA
Location:  55.85°N, 4.58°W
Report Text: EGPF 202250Z AUTO 06004KT 3500 HZ BKN045 06/05 Q1025
Loading
Personal Weather Stations






























Interactive Weather Map New forecast layout! Learn more

10-Day Weather Forecast

Advertisements
Track Severe Weather on mobile